createdAt,value
2018-11-14T00:00:03.993Z,13.27
2018-11-14T00:02:32.752Z,10.10
2018-11-14T00:05:01.151Z,12.17
2018-11-14T00:07:29.662Z,13.07
2018-11-14T00:09:58.371Z,14.57
2018-11-14T00:12:26.963Z,14.30
2018-11-14T00:14:55.692Z,13.40
2018-11-14T00:17:24.412Z,10.40
2018-11-14T00:19:52.897Z,11.20
2018-11-14T00:22:21.281Z,9.70
2018-11-14T00:24:49.898Z,13.13
2018-11-14T00:27:18.193Z,8.87
2018-11-14T00:29:46.650Z,14.23
2018-11-14T00:32:15.172Z,11.90
2018-11-14T00:34:43.592Z,12.20
2018-11-14T00:37:12.068Z,11.00
2018-11-14T00:39:40.618Z,11.63
2018-11-14T00:42:09.006Z,11.97
2018-11-14T00:44:37.564Z,11.03
2018-11-14T00:47:06.178Z,12.70
2018-11-14T00:49:34.595Z,10.93
2018-11-14T00:52:03.200Z,11.23
2018-11-14T00:54:31.678Z,10.50
2018-11-14T00:57:00.051Z,13.10
2018-11-14T00:59:28.645Z,7.00
2018-11-14T01:01:57.149Z,11.43
2018-11-14T01:04:25.539Z,13.23
2018-11-14T01:06:53.887Z,13.57
2018-11-14T01:09:22.585Z,11.53
2018-11-14T01:11:50.994Z,10.57
2018-11-14T01:14:19.348Z,14.20
2018-11-14T01:16:47.809Z,8.73
2018-11-14T01:19:16.178Z,11.87
2018-11-14T01:21:44.998Z,9.33
2018-11-14T01:24:13.485Z,11.80
2018-11-14T01:26:42.073Z,13.37
2018-11-14T01:29:10.520Z,12.37
2018-11-14T01:31:39.115Z,11.60
2018-11-14T01:34:07.531Z,15.27
2018-11-14T01:36:35.885Z,12.70
2018-11-14T01:39:07.094Z,13.70
2018-11-14T01:41:35.466Z,10.70
2018-11-14T01:44:04.019Z,15.50
2018-11-14T01:46:32.553Z,13.40
2018-11-14T01:49:00.931Z,14.07
2018-11-14T01:51:29.373Z,11.50
2018-11-14T01:53:58.009Z,15.77
2018-11-14T01:56:26.817Z,11.27
2018-11-14T01:58:55.308Z,14.77
2018-11-14T02:01:24.076Z,12.10
2018-11-14T02:03:52.463Z,13.43
2018-11-14T02:06:20.996Z,10.43
2018-11-14T02:08:49.501Z,12.83
2018-11-14T02:11:17.884Z,14.30
2018-11-14T02:13:46.283Z,12.23
2018-11-14T02:16:15.008Z,13.43
2018-11-14T02:18:43.374Z,14.07
2018-11-14T02:21:11.813Z,12.20
2018-11-14T02:23:40.352Z,10.70
2018-11-14T02:26:08.705Z,11.27
2018-11-14T02:28:37.194Z,11.33
2018-11-14T02:31:06.276Z,9.90
2018-11-14T02:33:34.651Z,18.20
2018-11-14T02:36:03.176Z,10.73
2018-11-14T02:38:31.783Z,12.00
2018-11-14T02:41:00.252Z,12.47
2018-11-14T02:43:28.809Z,12.77
2018-11-14T02:45:57.530Z,9.83
2018-11-14T02:48:25.937Z,11.77
2018-11-14T02:51:06.184Z,12.43
2018-11-14T02:53:34.615Z,14.00
2018-11-14T02:56:08.632Z,14.47
2018-11-14T02:58:37.054Z,11.07
2018-11-14T03:01:05.795Z,9.87
2018-11-14T03:03:34.530Z,10.77
2018-11-14T03:06:02.989Z,9.77
2018-11-14T03:08:31.425Z,7.13
2018-11-14T03:11:00.041Z,9.53
2018-11-14T03:13:28.493Z,15.53
2018-11-14T03:15:56.914Z,14.60
2018-11-14T03:18:25.494Z,11.80
2018-11-14T03:20:53.909Z,13.07
2018-11-14T03:23:22.329Z,13.07
2018-11-14T03:25:54.640Z,11.10
2018-11-14T03:28:23.090Z,12.47
2018-11-14T03:30:51.485Z,12.03
2018-11-14T03:33:20.300Z,14.00
2018-11-14T03:35:54.140Z,10.37
2018-11-14T03:38:23.189Z,9.17
2018-11-14T03:40:51.593Z,10.47
2018-11-14T03:43:19.989Z,9.10
2018-11-14T03:45:48.729Z,10.17
2018-11-14T03:48:17.224Z,9.77
2018-11-14T03:50:45.744Z,12.23
2018-11-14T03:53:14.575Z,10.87
2018-11-14T03:55:42.980Z,10.23
2018-11-14T03:58:11.570Z,8.90
2018-11-14T04:00:40.161Z,13.20
2018-11-14T04:03:08.572Z,10.10
2018-11-14T04:05:37.173Z,11.40
2018-11-14T04:08:06.248Z,12.43
2018-11-14T04:10:34.615Z,12.97
2018-11-14T04:13:03.057Z,14.00
2018-11-14T04:15:31.880Z,10.10
2018-11-14T04:18:00.349Z,12.03
2018-11-14T04:20:28.779Z,13.10
2018-11-14T04:22:57.480Z,11.37
2018-11-14T04:25:25.892Z,12.53
2018-11-14T04:27:54.332Z,14.17
2018-11-14T04:30:23.775Z,11.53
2018-11-14T04:32:52.154Z,12.37
2018-11-14T04:35:21.192Z,14.23
2018-11-14T04:37:49.946Z,13.27
2018-11-14T04:40:20.009Z,15.07
2018-11-14T04:42:48.448Z,14.13
2018-11-14T04:45:26.661Z,13.47
2018-11-14T04:47:55.050Z,12.97
2018-11-14T04:50:25.622Z,13.00
2018-11-14T04:52:54.504Z,13.37
2018-11-14T04:55:23.998Z,19.53
2018-11-14T04:57:52.743Z,13.80
2018-11-14T05:00:23.459Z,10.20
2018-11-14T05:02:52.224Z,14.57
2018-11-14T05:05:22.418Z,15.80
2018-11-14T05:07:51.040Z,13.70
2018-11-14T05:10:21.269Z,13.63
2018-11-14T05:12:50.259Z,9.57
2018-11-14T05:15:20.981Z,11.93
2018-11-14T05:17:49.953Z,11.40
2018-11-14T05:20:19.318Z,14.97
2018-11-14T05:22:48.380Z,12.37
2018-11-14T05:25:17.039Z,11.57
2018-11-14T05:27:45.534Z,11.70
2018-11-14T05:30:16.542Z,12.37
2018-11-14T05:32:45.905Z,10.43
2018-11-14T05:35:14.597Z,12.53
2018-11-14T05:37:43.102Z,12.37
2018-11-14T05:40:15.545Z,18.90
2018-11-14T05:42:44.781Z,11.97
2018-11-14T05:45:18.690Z,11.87
2018-11-14T05:47:47.226Z,9.53
2018-11-14T05:50:16.812Z,10.43
2018-11-14T05:52:45.245Z,12.37
2018-11-14T05:55:14.407Z,10.17
2018-11-14T05:57:46.061Z,10.97
2018-11-14T06:00:31.173Z,14.17
2018-11-14T06:03:00.527Z,11.03
2018-11-14T06:05:28.978Z,11.67
2018-11-14T06:07:57.761Z,11.87
2018-11-14T06:10:26.457Z,10.83
2018-11-14T06:12:54.991Z,15.13
2018-11-14T06:15:23.627Z,16.63
2018-11-14T06:17:52.875Z,10.30
2018-11-14T06:20:22.107Z,14.00
2018-11-14T06:22:51.518Z,9.20
2018-11-14T06:25:26.301Z,14.40
2018-11-14T06:27:55.649Z,10.40
2018-11-14T06:30:24.460Z,11.73
2018-11-14T06:32:53.388Z,11.37
2018-11-14T06:35:22.436Z,12.87
2018-11-14T06:37:51.577Z,15.27
2018-11-14T06:40:20.149Z,14.17
2018-11-14T06:42:48.827Z,12.03
2018-11-14T06:45:18.291Z,13.00
2018-11-14T06:47:48.002Z,13.63
2018-11-14T06:50:16.769Z,12.97
2018-11-14T06:52:46.152Z,14.33
2018-11-14T06:55:15.604Z,10.30
2018-11-14T06:57:44.204Z,10.00
2018-11-14T07:00:19.333Z,14.17
2018-11-14T07:02:48.228Z,11.50
2018-11-14T07:05:17.663Z,12.93
2018-11-14T07:07:46.211Z,21.20
2018-11-14T07:10:16.720Z,16.63
2018-11-14T07:12:45.145Z,13.77
2018-11-14T07:15:15.857Z,13.10
2018-11-14T07:17:45.007Z,15.47
2018-11-14T07:20:16.173Z,14.50
2018-11-14T07:22:44.918Z,17.93
2018-11-14T07:25:14.179Z,15.77
2018-11-14T07:27:42.716Z,15.33
2018-11-14T07:30:17.642Z,15.63
2018-11-14T07:32:48.371Z,15.80
2018-11-14T07:35:17.311Z,16.93
2018-11-14T07:38:51.654Z,12.70
2018-11-14T07:41:27.142Z,16.93
2018-11-14T07:43:55.719Z,14.20
2018-11-14T07:46:25.072Z,10.70
2018-11-14T07:48:53.689Z,10.83
2018-11-14T07:51:22.311Z,12.53
2018-11-14T07:53:52.039Z,17.87
2018-11-14T07:56:20.486Z,13.20
2018-11-14T07:58:49.197Z,19.27
2018-11-14T08:01:17.765Z,15.23
2018-11-14T08:03:46.422Z,16.40
2018-11-14T08:06:15.229Z,13.73
2018-11-14T08:08:43.951Z,14.87
2018-11-14T08:11:12.482Z,12.03
2018-11-14T08:13:42.570Z,17.50
2018-11-14T08:16:10.998Z,14.40
2018-11-14T08:18:39.768Z,15.60
2018-11-14T08:21:08.700Z,18.50
2018-11-14T08:23:37.133Z,17.40
2018-11-14T08:26:05.638Z,20.13
2018-11-14T08:28:34.708Z,15.27
2018-11-14T08:31:03.254Z,15.10
2018-11-14T08:33:31.751Z,18.97
2018-11-14T08:36:00.258Z,18.33
2018-11-14T08:38:28.676Z,13.17
2018-11-14T08:40:57.171Z,13.30
2018-11-14T08:43:25.931Z,12.03
2018-11-14T08:45:54.576Z,12.70
2018-11-14T08:48:23.114Z,18.20
2018-11-14T08:50:51.586Z,16.97
2018-11-14T08:53:19.983Z,17.20
2018-11-14T08:55:48.428Z,13.87
2018-11-14T08:58:17.352Z,12.57
2018-11-14T09:00:45.716Z,17.03
2018-11-14T09:03:14.771Z,15.73
2018-11-14T09:05:43.623Z,16.53
2018-11-14T09:08:12.049Z,17.30
2018-11-14T09:10:40.452Z,17.17
2018-11-14T09:13:17.067Z,19.00
2018-11-14T09:15:46.066Z,19.07
2018-11-14T09:18:14.622Z,13.37
2018-11-14T09:20:43.238Z,14.60
2018-11-14T09:23:11.900Z,13.80
2018-11-14T09:25:40.302Z,13.80
2018-11-14T09:28:09.152Z,15.53
2018-11-14T09:30:37.786Z,16.33
2018-11-14T09:33:06.503Z,17.77
2018-11-14T09:35:35.321Z,19.40
2018-11-14T09:38:03.851Z,17.17
2018-11-14T09:40:32.235Z,14.63
2018-11-14T09:43:00.786Z,15.90
2018-11-14T09:45:30.142Z,17.03
2018-11-14T09:47:58.641Z,14.27
2018-11-14T09:50:28.663Z,16.70
2018-11-14T09:53:00.210Z,13.03
2018-11-14T09:55:28.648Z,14.87
2018-11-14T09:57:57.187Z,18.37
2018-11-14T10:00:27.208Z,17.57
2018-11-14T10:02:59.733Z,14.93
2018-11-14T10:05:28.165Z,15.53
2018-11-14T10:07:56.582Z,11.60
2018-11-14T10:10:25.266Z,17.97
2018-11-14T10:12:53.901Z,14.97
2018-11-14T10:15:23.516Z,16.47
2018-11-14T10:17:52.168Z,18.47
2018-11-14T10:20:21.649Z,15.90
2018-11-14T10:22:50.179Z,15.10
2018-11-14T10:25:19.378Z,14.63
2018-11-14T10:27:48.272Z,14.43
2018-11-14T10:30:21.667Z,18.17
2018-11-14T10:32:50.401Z,15.33
2018-11-14T10:35:18.805Z,13.83
2018-11-14T10:37:47.245Z,14.77
2018-11-14T10:40:18.343Z,13.13
2018-11-14T10:42:46.798Z,12.90
2018-11-14T10:45:16.833Z,13.23
2018-11-14T10:47:45.388Z,11.27
2018-11-14T10:50:16.083Z,15.93
2018-11-14T10:52:44.936Z,13.60
2018-11-14T10:55:14.267Z,18.53
2018-11-14T10:57:42.674Z,11.93
2018-11-14T11:00:25.462Z,14.47
2018-11-14T11:02:59.131Z,13.97
2018-11-14T11:05:35.739Z,16.07
2018-11-14T11:08:10.048Z,13.93
2018-11-14T11:10:44.040Z,13.27
2018-11-14T11:13:18.104Z,12.77
2018-11-14T11:15:51.936Z,12.10
2018-11-14T11:18:24.189Z,13.23
2018-11-14T11:20:52.696Z,12.17
2018-11-14T11:23:21.534Z,9.20
2018-11-14T11:25:49.928Z,14.80
2018-11-14T11:28:18.274Z,9.83
2018-11-14T11:30:47.217Z,15.93
2018-11-14T11:33:15.592Z,11.43
2018-11-14T11:35:43.963Z,10.90
2018-11-14T11:38:12.726Z,13.00
2018-11-14T11:40:41.136Z,13.33
2018-11-14T11:43:09.557Z,12.87
2018-11-14T11:45:38.212Z,15.20
2018-11-14T11:48:06.622Z,12.83
2018-11-14T11:50:35.062Z,13.73
2018-11-14T11:53:03.866Z,12.53
2018-11-14T11:55:32.278Z,11.47
2018-11-14T11:58:00.700Z,13.73
2018-11-14T12:04:00.172Z,11.90
2018-11-14T12:06:28.589Z,11.10
2018-11-14T12:08:56.952Z,10.47
2018-11-14T12:11:25.792Z,8.50
2018-11-14T12:13:54.247Z,11.17
2018-11-14T12:16:22.517Z,14.37
2018-11-14T12:18:52.383Z,13.97
2018-11-14T12:21:21.301Z,15.17
2018-11-14T12:23:49.749Z,13.80
2018-11-14T12:26:18.701Z,12.57
2018-11-14T12:28:47.021Z,21.00
2018-11-14T12:31:15.482Z,10.97
2018-11-14T12:33:43.966Z,11.07
2018-11-14T12:36:12.310Z,15.57
2018-11-14T12:38:40.715Z,17.90
2018-11-14T12:41:09.521Z,15.20
2018-11-14T12:43:37.871Z,11.33
2018-11-14T12:46:06.222Z,9.60
2018-11-14T12:48:34.623Z,12.87
2018-11-14T12:51:02.939Z,12.77
2018-11-14T12:53:31.787Z,11.80
2018-11-14T12:56:00.672Z,9.20
2018-11-14T12:58:29.047Z,8.30
2018-11-14T13:00:57.423Z,12.83
2018-11-14T13:03:25.948Z,11.87
2018-11-14T13:05:54.300Z,10.27
2018-11-14T13:08:22.646Z,11.73
2018-11-14T13:10:51.377Z,6.73
2018-11-14T13:13:19.699Z,7.10
2018-11-14T13:15:48.148Z,8.13
2018-11-14T13:18:18.053Z,10.77
2018-11-14T13:21:13.133Z,10.07
2018-11-14T13:23:42.166Z,10.57
2018-11-14T13:26:10.705Z,9.10
2018-11-14T13:28:39.655Z,7.83
2018-11-14T13:31:08.640Z,8.40
2018-11-14T13:33:37.002Z,7.60
2018-11-14T13:36:05.360Z,8.13
2018-11-14T13:38:33.861Z,8.33
2018-11-14T13:41:02.649Z,8.17
2018-11-14T13:43:30.990Z,7.50
2018-11-14T13:45:59.512Z,13.30
2018-11-14T13:48:27.925Z,8.20
2018-11-14T13:50:56.566Z,7.57
2018-11-14T13:53:25.631Z,5.50
2018-11-14T13:55:53.958Z,11.77
2018-11-14T13:58:22.294Z,7.37
2018-11-14T14:00:51.025Z,4.57
2018-11-14T14:03:19.396Z,8.63
2018-11-14T14:05:47.783Z,6.00
2018-11-14T14:08:16.456Z,5.27
2018-11-14T14:10:44.851Z,7.87
2018-11-14T14:13:13.370Z,4.40
2018-11-14T14:15:42.021Z,6.53
2018-11-14T14:18:10.435Z,4.57
2018-11-14T14:20:38.819Z,8.53
2018-11-14T14:23:07.693Z,4.50
2018-11-14T14:25:35.993Z,6.80
2018-11-14T14:28:04.335Z,6.33
2018-11-14T14:30:33.079Z,6.13
2018-11-14T14:33:01.404Z,5.73
2018-11-14T14:35:29.774Z,6.93
2018-11-14T14:37:58.441Z,7.20
2018-11-14T14:40:26.781Z,5.87
2018-11-14T14:42:55.127Z,8.53
2018-11-14T14:45:25.125Z,6.23
2018-11-14T14:47:53.493Z,11.40
2018-11-14T14:50:21.875Z,7.23
2018-11-14T14:52:50.388Z,9.10
2018-11-14T14:55:22.913Z,8.10
2018-11-14T14:57:51.664Z,12.67
2018-11-14T15:00:25.117Z,8.30
2018-11-14T15:02:54.521Z,7.40
2018-11-14T15:05:22.912Z,6.20
2018-11-14T15:07:51.244Z,7.97
2018-11-14T15:10:20.934Z,7.93
2018-11-14T15:12:49.334Z,9.07
2018-11-14T15:15:18.139Z,9.60
2018-11-14T15:17:46.787Z,6.40
2018-11-14T15:20:18.136Z,5.37
2018-11-14T15:22:46.584Z,7.63
2018-11-14T15:25:16.228Z,6.60
2018-11-14T15:27:45.217Z,6.53
2018-11-14T15:30:22.263Z,8.33
2018-11-14T15:32:50.783Z,6.27
2018-11-14T15:35:19.206Z,7.83
2018-11-14T15:37:47.784Z,8.27
2018-11-14T15:40:17.302Z,6.27
2018-11-14T15:42:46.005Z,7.70
2018-11-14T15:45:15.769Z,8.63
2018-11-14T15:47:44.184Z,8.17
2018-11-14T15:50:14.601Z,8.60
2018-11-14T15:52:44.227Z,8.30
2018-11-14T15:55:13.299Z,10.83
2018-11-14T15:57:41.708Z,7.43
2018-11-14T16:00:23.299Z,9.37
2018-11-14T16:02:51.711Z,8.83
2018-11-14T16:05:21.178Z,8.17
2018-11-14T16:07:50.841Z,8.27
2018-11-14T16:10:20.449Z,6.93
2018-11-14T16:12:48.981Z,5.93
2018-11-14T16:15:23.901Z,11.80
2018-11-14T16:17:52.292Z,5.93
2018-11-14T16:20:22.877Z,11.00
2018-11-14T16:22:51.436Z,6.33
2018-11-14T16:25:20.967Z,7.50
2018-11-14T16:27:50.333Z,6.07
2018-11-14T16:30:25.234Z,9.03
2018-11-14T16:32:54.795Z,9.13
2018-11-14T16:35:23.150Z,8.20
2018-11-14T16:37:51.813Z,8.23
2018-11-14T16:40:21.288Z,7.53
2018-11-14T16:42:50.413Z,9.00
2018-11-14T16:45:19.022Z,6.33
2018-11-14T16:47:47.386Z,8.07
2018-11-14T16:50:16.934Z,7.20
2018-11-14T16:52:45.811Z,12.43
2018-11-14T16:55:15.455Z,9.67
2018-11-14T16:57:44.475Z,8.90
2018-11-14T17:00:16.076Z,7.27
2018-11-14T17:02:44.415Z,8.10
2018-11-14T17:05:13.338Z,8.83
2018-11-14T17:07:42.011Z,7.27
2018-11-14T17:10:13.400Z,6.20
2018-11-14T17:12:42.242Z,8.67
2018-11-14T17:15:13.372Z,7.73
2018-11-14T17:17:41.784Z,12.93
2018-11-14T17:20:11.006Z,8.80
2018-11-14T17:22:39.818Z,8.13
2018-11-14T17:25:08.838Z,5.87
2018-11-14T17:27:37.264Z,9.27
2018-11-14T17:30:08.332Z,10.60
2018-11-14T17:32:36.708Z,7.53
2018-11-14T17:35:06.342Z,8.40
2018-11-14T17:37:35.098Z,13.60
2018-11-14T17:40:03.552Z,9.23
2018-11-14T17:42:32.037Z,7.93
2018-11-14T17:45:00.571Z,9.87
2018-11-14T17:47:28.975Z,8.40
2018-11-14T17:49:57.309Z,11.43
2018-11-14T17:52:25.849Z,7.53
2018-11-14T17:54:54.197Z,7.90
2018-11-14T17:57:22.537Z,6.90
2018-11-14T17:59:51.125Z,11.27
2018-11-14T18:02:19.455Z,11.80
2018-11-14T18:04:47.785Z,8.17
2018-11-14T18:07:16.391Z,8.37
2018-11-14T18:09:45.405Z,9.43
2018-11-14T18:12:13.811Z,7.90
2018-11-14T18:14:42.712Z,7.50
2018-11-14T18:17:11.026Z,13.27
2018-11-14T18:19:39.399Z,9.50
2018-11-14T18:22:07.932Z,9.40
2018-11-14T18:24:36.442Z,8.20
2018-11-14T18:27:04.833Z,7.73
2018-11-14T18:29:33.448Z,9.80
2018-11-14T18:32:01.904Z,8.30
2018-11-14T18:34:30.234Z,9.87
2018-11-14T18:36:58.737Z,9.27
2018-11-14T18:39:27.161Z,11.97
2018-11-14T18:41:55.484Z,11.20
2018-11-14T18:44:24.176Z,10.53
2018-11-14T18:46:52.504Z,9.00
2018-11-14T18:49:20.862Z,7.67
2018-11-14T18:51:49.791Z,11.80
2018-11-14T18:54:18.137Z,10.60
2018-11-14T18:56:46.514Z,9.50
2018-11-14T18:59:15.052Z,7.63
2018-11-14T19:01:43.439Z,8.97
2018-11-14T19:04:11.778Z,9.27
2018-11-14T19:06:40.487Z,8.90
2018-11-14T19:09:09.236Z,11.17
2018-11-14T19:11:38.138Z,11.23
2018-11-14T19:14:06.872Z,10.23
2018-11-14T19:16:35.284Z,12.13
2018-11-14T19:19:03.696Z,9.23
2018-11-14T19:21:32.320Z,10.63
2018-11-14T19:24:00.702Z,10.23
2018-11-14T19:26:29.037Z,10.10
2018-11-14T19:28:57.710Z,11.50
2018-11-14T19:31:26.057Z,11.40
2018-11-14T19:33:54.376Z,10.97
2018-11-14T19:36:22.919Z,9.80
2018-11-14T19:38:51.238Z,8.77
2018-11-14T19:41:19.603Z,9.90
2018-11-14T19:43:48.255Z,11.77
2018-11-14T19:46:16.604Z,9.87
2018-11-14T19:48:44.992Z,10.60
2018-11-14T19:51:13.777Z,11.40
2018-11-14T19:53:42.308Z,11.90
2018-11-14T19:56:10.580Z,8.60
2018-11-14T19:58:39.273Z,11.87
2018-11-14T20:01:07.765Z,13.40
2018-11-14T20:03:36.205Z,7.87
2018-11-14T20:06:05.012Z,11.57
2018-11-14T20:08:33.377Z,9.47
2018-11-14T20:11:01.806Z,12.27
2018-11-14T20:13:30.405Z,17.27
2018-11-14T20:15:58.757Z,10.90
2018-11-14T20:18:27.187Z,10.43
2018-11-14T20:20:56.016Z,11.13
2018-11-14T20:23:24.365Z,15.40
2018-11-14T20:25:52.894Z,12.93
2018-11-14T20:28:21.839Z,10.57
2018-11-14T20:30:50.299Z,15.53
2018-11-14T20:33:18.749Z,14.40
2018-11-14T20:35:47.197Z,13.07
2018-11-14T20:38:15.560Z,13.70
2018-11-14T20:40:43.938Z,14.50
2018-11-14T20:43:12.639Z,10.73
2018-11-14T20:45:41.001Z,11.33
2018-11-14T20:48:09.332Z,15.97
2018-11-14T20:50:37.946Z,11.90
2018-11-14T20:53:06.358Z,15.67
2018-11-14T20:55:35.319Z,14.00
2018-11-14T20:58:03.885Z,13.50
2018-11-14T21:00:33.718Z,12.03
2018-11-14T21:03:02.093Z,13.90
2018-11-14T21:05:30.972Z,12.80
2018-11-14T21:07:59.390Z,14.03
2018-11-14T21:10:28.993Z,14.10
2018-11-14T21:12:58.209Z,14.57
2018-11-14T21:15:27.833Z,12.70
2018-11-14T21:17:57.081Z,11.67
2018-11-14T21:20:25.531Z,12.87
2018-11-14T21:22:53.937Z,12.73
2018-11-14T21:25:23.130Z,12.93
2018-11-14T21:27:52.103Z,12.03
2018-11-14T21:30:21.614Z,14.10
2018-11-14T21:32:50.015Z,11.60
2018-11-14T21:35:20.944Z,12.73
2018-11-14T21:37:50.838Z,13.33
2018-11-14T21:40:19.215Z,12.10
2018-11-14T21:42:47.976Z,10.90
2018-11-14T21:45:18.434Z,12.70
2018-11-14T21:47:52.389Z,16.67
2018-11-14T21:50:21.726Z,11.63
2018-11-14T21:52:50.148Z,13.07
2018-11-14T21:55:19.088Z,14.27
2018-11-14T21:57:47.448Z,11.77
2018-11-14T22:00:18.711Z,14.53
2018-11-14T22:02:50.374Z,13.07
2018-11-14T22:05:19.026Z,14.10
2018-11-14T22:07:47.576Z,12.83
2018-11-14T22:10:17.620Z,14.20
2018-11-14T22:12:47.097Z,14.13
2018-11-14T22:15:16.577Z,12.17
2018-11-14T22:17:45.358Z,11.47
2018-11-14T22:20:15.846Z,11.37
2018-11-14T22:22:45.203Z,12.00
2018-11-14T22:25:15.545Z,14.17
2018-11-14T22:27:44.352Z,12.63
2018-11-14T22:30:18.432Z,13.57
2018-11-14T22:32:47.529Z,12.90
2018-11-14T22:35:17.155Z,11.33
2018-11-14T22:37:46.155Z,11.30
2018-11-14T22:40:15.807Z,11.73
2018-11-14T22:42:45.435Z,13.67
2018-11-14T22:45:16.117Z,13.57
2018-11-14T22:47:44.805Z,11.47
2018-11-14T22:50:14.292Z,14.17
2018-11-14T22:52:43.439Z,13.97
2018-11-14T22:55:13.056Z,14.20
2018-11-14T22:57:41.937Z,11.00
2018-11-14T23:00:22.755Z,13.13
2018-11-14T23:02:52.608Z,11.97
2018-11-14T23:05:20.946Z,14.67
2018-11-14T23:07:50.574Z,10.43
2018-11-14T23:10:19.692Z,11.83
2018-11-14T23:12:48.305Z,15.03
2018-11-14T23:15:17.499Z,12.97
2018-11-14T23:17:47.007Z,10.97
2018-11-14T23:20:16.064Z,14.83
2018-11-14T23:22:45.814Z,12.60
2018-11-14T23:25:14.668Z,15.40
2018-11-14T23:27:44.146Z,15.43
2018-11-14T23:30:13.898Z,13.27
2018-11-14T23:32:43.513Z,13.77
2018-11-14T23:35:19.252Z,12.30
2018-11-14T23:37:52.656Z,12.17
2018-11-14T23:40:21.674Z,12.27
2018-11-14T23:42:50.378Z,12.43
2018-11-14T23:45:19.766Z,15.47
2018-11-14T23:47:49.060Z,14.10
2018-11-14T23:50:22.444Z,15.20
2018-11-14T23:52:51.932Z,16.53
2018-11-14T23:55:21.028Z,12.37
2018-11-14T23:57:49.573Z,11.97
